Pine Level, North Carolina
Current Conditions -  °F | °C
As of 9:35 PM on Sunday 23 Nov 2014 (Local Time) from KJNX Reporting Station
Light Rain Light Rain  
Wind Chill: 64°   Ceiling: 1000
Heat Index: 64°   Visibility: 10mi
Dew Point: 63°   Wind: 7mph
Humidity: 94%   Direction: 160°SSE
Pressure: 29.86"   Gusts: NA
Location:  35.51°N, 78.24°W
Report Text: KJNX 240235Z AUTO 16006KT 10SM -RA OVC010 18/17 A2986 RMK AO2 LTG DSNT SE AND S P0001
Loading
Personal Weather Stations






























Interactive Weather Map New forecast layout! Learn more

10-Day Weather Forecast

Advertisements
Track Severe Weather on mobile